createdAt,value
2019-02-26T00:00:59.025Z,99107.72
2019-02-26T00:03:35.245Z,99110.44
2019-02-26T00:06:09.061Z,99130.30
2019-02-26T00:08:47.230Z,99135.43
2019-02-26T00:11:19.223Z,99138.78
2019-02-26T00:13:55.111Z,99141.89
2019-02-26T00:16:29.435Z,99155.71
2019-02-26T00:19:05.558Z,99159.52
2019-02-26T00:21:40.010Z,99158.66
2019-02-26T00:24:14.705Z,99158.38
2019-02-26T00:26:49.145Z,99149.67
2019-02-26T00:29:24.956Z,99170.30
2019-02-26T00:31:59.006Z,99166.81
2019-02-26T00:34:34.608Z,99185.26
2019-02-26T00:37:08.964Z,99184.94
2019-02-26T00:39:43.119Z,99164.17
2019-02-26T00:42:21.527Z,99166.34
2019-02-26T00:44:55.941Z,99169.38
2019-02-26T00:47:33.671Z,99193.01
2019-02-26T00:50:07.313Z,99198.67
2019-02-26T00:52:42.231Z,99203.61
2019-02-26T00:55:16.584Z,99205.19
2019-02-26T00:57:51.015Z,99207.91
2019-02-26T01:00:26.822Z,99209.77
2019-02-26T01:03:01.448Z,99217.11
2019-02-26T01:05:36.869Z,99224.13
2019-02-26T01:08:13.315Z,99229.03
2019-02-26T01:10:47.827Z,99235.30
2019-02-26T01:13:25.577Z,99239.91
2019-02-26T01:15:59.336Z,99235.23
2019-02-26T01:18:33.835Z,99235.45
2019-02-26T01:21:08.310Z,99232.92
2019-02-26T01:23:42.810Z,99245.92
2019-02-26T01:26:17.142Z,99241.02
2019-02-26T01:28:53.575Z,99239.87
2019-02-26T01:31:29.074Z,99245.83
2019-02-26T01:34:03.428Z,99245.83
2019-02-26T01:36:40.398Z,99254.52
2019-02-26T01:39:16.237Z,99255.56
2019-02-26T01:41:53.233Z,99259.64
2019-02-26T01:44:32.309Z,99250.12
2019-02-26T01:47:04.748Z,99250.88
2019-02-26T01:49:39.779Z,99255.23
2019-02-26T01:52:15.071Z,99259.03
2019-02-26T01:54:51.354Z,99259.86
2019-02-26T01:57:27.763Z,99269.81
2019-02-26T02:00:06.452Z,99264.38
2019-02-26T02:02:39.842Z,99271.67
2019-02-26T02:05:14.156Z,99276.39
2019-02-26T02:07:51.825Z,99284.77
2019-02-26T02:10:25.369Z,99287.99
2019-02-26T02:13:02.049Z,99302.95
2019-02-26T02:15:37.849Z,99304.31
2019-02-26T02:18:12.488Z,99297.44
2019-02-26T02:20:46.536Z,99297.95
2019-02-26T02:23:21.247Z,99295.77
2019-02-26T02:25:59.761Z,99295.23
2019-02-26T02:28:33.822Z,99287.83
2019-02-26T02:31:08.327Z,99291.91
2019-02-26T02:33:42.419Z,99280.39
2019-02-26T02:36:17.732Z,99289.09
2019-02-26T02:38:52.485Z,99287.19
2019-02-26T02:41:26.704Z,99294.20
2019-02-26T02:44:00.993Z,99303.44
2019-02-26T02:46:36.632Z,99317.53
2019-02-26T02:49:13.261Z,99321.61
2019-02-26T02:51:47.621Z,99328.12
2019-02-26T02:54:26.179Z,99338.67
2019-02-26T02:57:02.409Z,99347.33
2019-02-26T02:59:41.699Z,99343.79
2019-02-26T03:02:17.348Z,99345.16
2019-02-26T03:04:50.501Z,99348.91
2019-02-26T03:07:28.820Z,99357.06
2019-02-26T03:10:04.529Z,99363.58
2019-02-26T03:12:38.659Z,99372.55
2019-02-26T03:15:13.610Z,99388.86
2019-02-26T03:17:47.786Z,99384.47
2019-02-26T03:20:24.194Z,99389.08
2019-02-26T03:22:58.932Z,99392.84
2019-02-26T03:25:32.967Z,99385.65
2019-02-26T03:28:07.081Z,99388.98
2019-02-26T03:30:44.233Z,99389.83
2019-02-26T03:33:19.809Z,99385.65
2019-02-26T03:35:53.766Z,99389.02
2019-02-26T03:38:28.886Z,99386.40
2019-02-26T03:41:03.719Z,99388.69
2019-02-26T03:43:39.853Z,99387.12
2019-02-26T03:46:14.929Z,99388.80
2019-02-26T03:48:49.405Z,99395.80
2019-02-26T03:51:23.504Z,99397.98
2019-02-26T03:53:58.697Z,99401.95
2019-02-26T03:56:32.988Z,99409.28
2019-02-26T03:59:09.557Z,99407.81
2019-02-26T04:01:43.301Z,99421.72
2019-02-26T04:04:20.450Z,99431.98
2019-02-26T04:06:55.828Z,99441.38
2019-02-26T04:09:30.600Z,99444.92
2019-02-26T04:12:04.717Z,99451.93
2019-02-26T04:14:39.020Z,99461.11
2019-02-26T04:17:14.504Z,99454.33
2019-02-26T04:19:48.739Z,99455.89
2019-02-26T04:22:29.671Z,99458.19
2019-02-26T04:25:26.992Z,99456.53
2019-02-26T04:28:12.219Z,99451.39
2019-02-26T04:31:07.387Z,99460.29
2019-02-26T04:34:10.645Z,99447.45
2019-02-26T04:37:30.702Z,99442.09
2019-02-26T04:40:38.220Z,99431.15
2019-02-26T04:43:54.192Z,99425.58
2019-02-26T04:46:39.547Z,99412.70
2019-02-26T04:49:13.874Z,99422.74
2019-02-26T04:51:50.371Z,99429.22
2019-02-26T04:54:26.984Z,99444.48
2019-02-26T04:56:59.807Z,99457.53
2019-02-26T04:59:35.100Z,99493.91
2019-02-26T05:02:10.317Z,99509.89
2019-02-26T05:04:45.639Z,99512.72
2019-02-26T05:07:24.792Z,99515.20
2019-02-26T05:10:01.885Z,99514.89
2019-02-26T05:12:37.863Z,99514.59
2019-02-26T05:15:16.934Z,99505.49
2019-02-26T05:17:48.071Z,99498.48
2019-02-26T05:20:22.110Z,99490.77
2019-02-26T05:23:01.062Z,99472.28
2019-02-26T05:25:37.367Z,99450.75
2019-02-26T05:28:12.534Z,99445.41
2019-02-26T05:30:49.531Z,99459.52
2019-02-26T05:33:25.295Z,99475.72
2019-02-26T05:36:00.744Z,99475.67
2019-02-26T05:38:35.730Z,99468.95
2019-02-26T05:41:10.996Z,99460.52
2019-02-26T05:43:52.079Z,99455.08
2019-02-26T05:46:27.030Z,99450.25
2019-02-26T05:49:00.596Z,99444.82
2019-02-26T05:51:36.032Z,99437.81
2019-02-26T05:54:12.253Z,99440.86
2019-02-26T05:56:49.796Z,99435.53
2019-02-26T05:59:23.143Z,99426.02
2019-02-26T06:01:59.313Z,99422.98
2019-02-26T06:04:35.172Z,99416.91
2019-02-26T06:07:10.881Z,99416.91
2019-02-26T06:09:48.027Z,99427.05
2019-02-26T06:12:22.037Z,99424.55
2019-02-26T06:15:00.750Z,99419.52
2019-02-26T06:17:35.232Z,99407.00
2019-02-26T06:20:23.637Z,99406.67
2019-02-26T06:22:58.165Z,99399.56
2019-02-26T06:25:33.697Z,99390.27
2019-02-26T06:28:10.538Z,99383.04
2019-02-26T06:30:45.057Z,99383.25
2019-02-26T06:33:20.313Z,99379.00
2019-02-26T06:35:55.306Z,99376.99
2019-02-26T06:38:32.765Z,99371.56
2019-02-26T06:41:07.548Z,99363.95
2019-02-26T06:43:47.142Z,99365.52
2019-02-26T06:46:19.044Z,99362.80
2019-02-26T06:48:54.614Z,99355.91
2019-02-26T06:51:30.740Z,99345.64
2019-02-26T06:54:07.086Z,99338.23
2019-02-26T06:56:43.821Z,99323.41
2019-02-26T06:59:20.482Z,99307.00
2019-02-26T07:01:56.110Z,99311.28
2019-02-26T07:04:33.880Z,99300.50
2019-02-26T07:07:14.043Z,99296.95
2019-02-26T07:09:46.293Z,99290.34
2019-02-26T07:12:22.194Z,99281.48
2019-02-26T07:14:58.907Z,99275.73
2019-02-26T07:17:33.849Z,99270.41
2019-02-26T07:20:10.412Z,99260.69
2019-02-26T07:22:49.650Z,99262.05
2019-02-26T07:25:24.452Z,99270.83
2019-02-26T07:28:01.083Z,99270.94
2019-02-26T07:30:39.764Z,99266.54
2019-02-26T07:33:15.065Z,99256.28
2019-02-26T07:35:52.223Z,99245.73
2019-02-26T07:38:27.682Z,99234.86
2019-02-26T07:41:03.764Z,99231.14
2019-02-26T07:43:41.037Z,99225.27
2019-02-26T07:46:17.038Z,99222.77
2019-02-26T07:48:54.000Z,99213.05
2019-02-26T07:51:31.150Z,99216.09
2019-02-26T07:54:08.149Z,99209.30
2019-02-26T07:56:43.918Z,99213.37
2019-02-26T07:59:27.447Z,99206.58
2019-02-26T08:01:57.951Z,99206.86
2019-02-26T08:04:34.516Z,99195.99
2019-02-26T08:07:09.403Z,99194.45
2019-02-26T08:09:45.632Z,99202.78
2019-02-26T08:12:22.008Z,99191.20
2019-02-26T08:15:05.023Z,99194.45
2019-02-26T08:17:51.910Z,99198.52
2019-02-26T08:20:28.435Z,99198.52
2019-02-26T08:23:04.285Z,99197.23
2019-02-26T08:25:39.423Z,99206.24
2019-02-26T08:28:15.539Z,99201.02
2019-02-26T08:30:52.888Z,99194.13
2019-02-26T08:33:29.485Z,99190.27
2019-02-26T08:36:04.368Z,99182.12
2019-02-26T08:38:39.074Z,99179.69
2019-02-26T08:41:14.965Z,99173.66
2019-02-26T08:43:51.514Z,99176.79
2019-02-26T08:46:27.338Z,99171.86
2019-02-26T08:49:08.415Z,99174.26
2019-02-26T08:51:43.760Z,99163.20
2019-02-26T08:54:23.726Z,99164.34
2019-02-26T08:56:58.689Z,99160.48
2019-02-26T08:59:33.883Z,99153.38
2019-02-26T09:02:10.768Z,99151.92
2019-02-26T09:04:47.805Z,99139.47
2019-02-26T09:07:23.816Z,99144.19
2019-02-26T09:10:02.130Z,99153.88
2019-02-26T09:12:39.026Z,99157.45
2019-02-26T09:15:18.610Z,99145.61
2019-02-26T09:17:53.554Z,99138.31
2019-02-26T09:20:31.150Z,99127.44
2019-02-26T09:23:06.426Z,99113.01
2019-02-26T09:25:41.695Z,99113.86
2019-02-26T09:28:17.373Z,99116.36
2019-02-26T09:30:53.781Z,99109.78
2019-02-26T09:33:32.836Z,99110.29
2019-02-26T09:36:10.534Z,99108.80
2019-02-26T09:38:45.124Z,99105.87
2019-02-26T09:41:22.657Z,99107.28
2019-02-26T09:44:01.923Z,99111.48
2019-02-26T09:46:41.200Z,99120.08
2019-02-26T09:49:17.703Z,99125.19
2019-02-26T09:51:56.817Z,99123.83
2019-02-26T09:54:40.320Z,99124.30
2019-02-26T09:57:18.555Z,99123.83
2019-02-26T09:59:58.115Z,99125.19
2019-02-26T10:02:34.290Z,99125.66
2019-02-26T10:05:14.074Z,99127.91
2019-02-26T10:07:54.914Z,99128.73
2019-02-26T10:10:36.680Z,99130.09
2019-02-26T10:13:12.143Z,99134.70
2019-02-26T10:15:49.716Z,99136.05
2019-02-26T10:18:27.782Z,99135.52
2019-02-26T10:21:02.711Z,99132.30
2019-02-26T10:23:47.155Z,99126.87
2019-02-26T10:26:20.263Z,99122.25
2019-02-26T10:29:02.219Z,99117.36
2019-02-26T10:31:34.177Z,99113.79
2019-02-26T10:34:12.426Z,99117.36
2019-02-26T10:36:49.303Z,99113.56
2019-02-26T10:39:26.412Z,99108.45
2019-02-26T10:42:02.551Z,99106.77
2019-02-26T10:44:37.414Z,99108.45
2019-02-26T10:47:12.946Z,99103.02
2019-02-26T10:49:51.869Z,99101.34
2019-02-26T10:52:28.782Z,99099.98
2019-02-26T10:55:04.251Z,99104.91
2019-02-26T10:57:39.990Z,99109.81
2019-02-26T11:00:25.934Z,99110.63
2019-02-26T11:03:01.835Z,99112.53
2019-02-26T11:05:40.607Z,99124.44
2019-02-26T11:08:17.070Z,99115.78
2019-02-26T11:10:55.470Z,99116.60
2019-02-26T11:13:37.272Z,99123.08
2019-02-26T11:16:21.861Z,99126.64
2019-02-26T11:18:53.149Z,99131.55
2019-02-26T11:21:29.265Z,99135.40
2019-02-26T11:24:09.339Z,99140.01
2019-02-26T11:26:47.208Z,99132.91
2019-02-26T11:29:23.785Z,99132.91
2019-02-26T11:32:01.717Z,99128.83
2019-02-26T11:34:38.428Z,99125.51
2019-02-26T11:37:15.597Z,99120.67
2019-02-26T11:39:53.336Z,99121.22
2019-02-26T11:42:28.875Z,99117.64
2019-02-26T11:45:06.604Z,99122.25
2019-02-26T11:47:43.866Z,99119.00
2019-02-26T11:50:20.937Z,99112.20
2019-02-26T11:52:55.643Z,99118.56
2019-02-26T11:55:32.412Z,99116.60
2019-02-26T11:58:10.214Z,99118.18
2019-02-26T12:00:57.328Z,99114.92
2019-02-26T12:06:08.296Z,99101.87
2019-02-26T12:08:47.355Z,99097.27
2019-02-26T12:11:23.332Z,99097.90
2019-02-26T12:13:57.854Z,99095.34
2019-02-26T12:16:32.200Z,99094.84
2019-02-26T12:19:08.715Z,99097.84
2019-02-26T12:21:43.581Z,99092.95
2019-02-26T12:24:17.985Z,99078.76
2019-02-26T12:26:54.702Z,99083.66
2019-02-26T12:29:29.062Z,99088.55
2019-02-26T12:32:04.892Z,99105.48
2019-02-26T12:34:44.594Z,99113.92
2019-02-26T12:37:16.962Z,99110.60
2019-02-26T12:39:53.028Z,99108.11
2019-02-26T12:42:27.468Z,99099.64
2019-02-26T12:45:04.863Z,99106.15
2019-02-26T12:47:40.685Z,99098.19
2019-02-26T12:50:16.813Z,99099.55
2019-02-26T12:52:53.909Z,99097.59
2019-02-26T12:55:31.637Z,99097.27
2019-02-26T12:58:03.910Z,99102.70
2019-02-26T13:00:41.270Z,99102.70
2019-02-26T13:03:15.883Z,99095.63
2019-02-26T13:05:51.765Z,99107.31
2019-02-26T13:08:26.152Z,99107.53
2019-02-26T13:11:01.831Z,99113.28
2019-02-26T13:13:44.767Z,99119.22
2019-02-26T13:16:18.963Z,99131.45
2019-02-26T13:18:58.569Z,99145.56
2019-02-26T13:21:29.082Z,99146.58
2019-02-26T13:24:11.657Z,99141.14
2019-02-26T13:26:46.304Z,99144.20
2019-02-26T13:29:17.142Z,99159.62
2019-02-26T13:31:56.563Z,99171.98
2019-02-26T13:34:27.822Z,99181.27
2019-02-26T13:37:01.884Z,99180.02
2019-02-26T13:39:38.471Z,99156.91
2019-02-26T13:42:14.093Z,99140.11
2019-02-26T13:44:48.980Z,99162.98
2019-02-26T13:47:23.518Z,99175.21
2019-02-26T13:49:57.810Z,99176.73
2019-02-26T13:52:32.246Z,99171.73
2019-02-26T13:55:09.086Z,99161.19
2019-02-26T13:57:43.290Z,99159.52
2019-02-26T14:00:25.962Z,99162.98
2019-02-26T14:02:54.371Z,99159.83
2019-02-26T14:05:28.528Z,99166.62
2019-02-26T14:08:04.884Z,99168.70
2019-02-26T14:10:39.190Z,99159.95
2019-02-26T14:13:13.546Z,99159.31
2019-02-26T14:15:47.813Z,99163.20
2019-02-26T14:18:22.167Z,99163.39
2019-02-26T14:20:56.367Z,99150.34
2019-02-26T14:23:34.933Z,99152.84
2019-02-26T14:26:08.351Z,99153.06
2019-02-26T14:28:43.353Z,99149.52
2019-02-26T14:31:17.402Z,99142.19
2019-02-26T14:33:51.652Z,99134.86
2019-02-26T14:36:25.854Z,99125.36
2019-02-26T14:38:59.846Z,99119.92
2019-02-26T14:41:36.558Z,99124.31
2019-02-26T14:44:10.609Z,99134.36
2019-02-26T14:46:45.989Z,99136.54
2019-02-26T14:49:20.143Z,99146.69
2019-02-26T14:51:55.526Z,99150.98
2019-02-26T14:54:29.986Z,99150.98
2019-02-26T14:57:04.319Z,99141.47
2019-02-26T14:59:38.640Z,99143.11
2019-02-26T15:02:12.898Z,99145.11
2019-02-26T15:04:47.243Z,99148.64
2019-02-26T15:07:21.712Z,99155.13
2019-02-26T15:09:55.788Z,99163.11
2019-02-26T15:12:30.836Z,99171.54
2019-02-26T15:15:06.183Z,99176.98
2019-02-26T15:17:40.480Z,99179.41
2019-02-26T15:20:16.570Z,99175.33
2019-02-26T15:22:51.699Z,99173.12
2019-02-26T15:25:26.334Z,99177.19
2019-02-26T15:28:05.163Z,99178.05
2019-02-26T15:30:36.259Z,99182.12
2019-02-26T15:33:11.414Z,99187.23
2019-02-26T15:35:46.840Z,99187.77
2019-02-26T15:38:21.165Z,99203.54
2019-02-26T15:40:55.635Z,99212.23
2019-02-26T15:43:29.882Z,99205.66
2019-02-26T15:46:04.336Z,99198.54
2019-02-26T15:48:38.305Z,99192.76
2019-02-26T15:51:14.566Z,99188.69
2019-02-26T15:53:48.487Z,99182.93
2019-02-26T15:56:22.768Z,99182.11
2019-02-26T15:58:57.096Z,99181.79
2019-02-26T16:01:31.481Z,99178.86
2019-02-26T16:04:05.967Z,99189.94
2019-02-26T16:06:40.037Z,99187.22
2019-02-26T16:09:14.836Z,99172.50
2019-02-26T16:11:49.391Z,99168.11
2019-02-26T16:14:23.406Z,99171.89
2019-02-26T16:16:57.675Z,99170.22
2019-02-26T16:19:31.860Z,99168.54
2019-02-26T16:22:05.996Z,99180.55
2019-02-26T16:24:41.324Z,99178.58
2019-02-26T16:27:15.636Z,99173.16
2019-02-26T16:29:49.968Z,99173.27
2019-02-26T16:32:24.293Z,99170.87
2019-02-26T16:34:59.897Z,99169.80
2019-02-26T16:37:34.248Z,99171.58
2019-02-26T16:40:08.708Z,99172.11
2019-02-26T16:42:44.617Z,99169.18
2019-02-26T16:45:21.254Z,99163.65
2019-02-26T16:47:57.263Z,99163.86
2019-02-26T16:50:31.639Z,99166.26
2019-02-26T16:53:05.846Z,99160.01
2019-02-26T16:55:40.068Z,99159.25
2019-02-26T16:58:14.095Z,99162.07
2019-02-26T17:00:48.885Z,99175.22
2019-02-26T17:03:23.507Z,99168.42
2019-02-26T17:05:57.900Z,99191.02
2019-02-26T17:08:32.291Z,99212.20
2019-02-26T17:11:06.640Z,99232.48
2019-02-26T17:13:43.440Z,99261.22
2019-02-26T17:16:17.518Z,99270.94
2019-02-26T17:18:51.713Z,99276.59
2019-02-26T17:21:30.540Z,99269.80
2019-02-26T17:24:01.438Z,99261.33
2019-02-26T17:26:35.521Z,99246.06
2019-02-26T17:29:09.666Z,99251.00
2019-02-26T17:31:44.051Z,99247.42
2019-02-26T17:34:20.654Z,99247.75
2019-02-26T17:36:53.953Z,99220.80
2019-02-26T17:39:28.742Z,99215.37
2019-02-26T17:42:03.135Z,99192.18
2019-02-26T17:44:37.243Z,99175.56
2019-02-26T17:47:11.377Z,99165.55
2019-02-26T17:49:45.419Z,99139.53
2019-02-26T17:52:19.660Z,99123.13
2019-02-26T17:54:54.037Z,99113.61
2019-02-26T17:57:28.402Z,99106.31
2019-02-26T18:00:02.844Z,99104.95
2019-02-26T18:02:37.275Z,99097.88
2019-02-26T18:05:11.726Z,99098.48
2019-02-26T18:07:45.829Z,99092.22
2019-02-26T18:10:21.070Z,99092.73
2019-02-26T18:12:56.052Z,99086.09
2019-02-26T18:15:30.412Z,99081.70
2019-02-26T18:18:05.279Z,99076.99
2019-02-26T18:20:40.741Z,99076.99
2019-02-26T18:23:16.084Z,99074.27
2019-02-26T18:25:50.474Z,99060.70
2019-02-26T18:28:24.760Z,99063.41
2019-02-26T18:30:59.591Z,99061.84
2019-02-26T18:33:36.174Z,99068.44
2019-02-26T18:36:09.983Z,99076.15
2019-02-26T18:38:48.349Z,99080.73
2019-02-26T18:41:20.294Z,99095.77
2019-02-26T18:43:54.693Z,99091.38
2019-02-26T18:46:29.087Z,99093.05
2019-02-26T18:49:05.095Z,99086.45
2019-02-26T18:51:39.303Z,99090.47
2019-02-26T18:54:13.566Z,99094.74
2019-02-26T18:56:47.747Z,99108.22
2019-02-26T18:59:22.199Z,99126.16
2019-02-26T19:01:56.350Z,99145.79
2019-02-26T19:04:30.693Z,99164.59
2019-02-26T19:07:05.297Z,99176.80
2019-02-26T19:09:42.703Z,99184.03
2019-02-26T19:12:18.561Z,99177.45
2019-02-26T19:14:53.090Z,99173.60
2019-02-26T19:17:27.401Z,99159.09
2019-02-26T19:20:02.005Z,99166.39
2019-02-26T19:22:37.634Z,99165.03
2019-02-26T19:25:12.149Z,99161.17
2019-02-26T19:27:46.551Z,99158.67
2019-02-26T19:30:21.187Z,99164.11
2019-02-26T19:32:55.779Z,99164.21
2019-02-26T19:35:30.127Z,99163.28
2019-02-26T19:38:04.247Z,99148.25
2019-02-26T19:40:41.510Z,99114.42
2019-02-26T19:43:16.535Z,99067.88
2019-02-26T19:45:50.475Z,99060.77
2019-02-26T19:48:24.461Z,99066.52
2019-02-26T19:50:58.858Z,99064.63
2019-02-26T19:53:34.725Z,99049.31
2019-02-26T19:56:09.483Z,99048.99
2019-02-26T19:58:43.945Z,99047.31
2019-02-26T20:01:18.758Z,99045.23
2019-02-26T20:03:53.018Z,99045.14
2019-02-26T20:06:27.296Z,99053.06
2019-02-26T20:09:05.842Z,99065.28
2019-02-26T20:11:39.637Z,99078.64
2019-02-26T20:14:14.824Z,99088.67
2019-02-26T20:16:49.773Z,99084.28
2019-02-26T20:19:24.304Z,99080.43
2019-02-26T20:21:58.923Z,99088.69
2019-02-26T20:24:33.154Z,99089.20
2019-02-26T20:27:07.422Z,99080.33
2019-02-26T20:29:41.839Z,99077.73
2019-02-26T20:32:16.169Z,99100.38
2019-02-26T20:34:50.287Z,99104.77
2019-02-26T20:37:24.989Z,99105.30
2019-02-26T20:39:59.324Z,99105.80
2019-02-26T20:42:33.823Z,99103.84
2019-02-26T20:45:08.734Z,99111.98
2019-02-26T20:47:43.189Z,99099.77
2019-02-26T20:50:20.072Z,99098.09
2019-02-26T20:52:53.572Z,99098.41
2019-02-26T20:55:27.764Z,99099.77
2019-02-26T20:58:01.920Z,99099.45
2019-02-26T21:00:42.248Z,99081.27
2019-02-26T21:03:12.169Z,99074.91
2019-02-26T21:05:46.238Z,99075.56
2019-02-26T21:08:20.373Z,99079.30
2019-02-26T21:10:54.589Z,99073.45
2019-02-26T21:13:28.997Z,99067.74
2019-02-26T21:16:04.231Z,99039.05
2019-02-26T21:18:39.408Z,99028.50
2019-02-26T21:21:14.070Z,99053.44
2019-02-26T21:23:48.555Z,99059.72
2019-02-26T21:26:22.684Z,99055.75
2019-02-26T21:28:57.061Z,99061.07
2019-02-26T21:31:31.234Z,99067.22
2019-02-26T21:34:05.478Z,99059.61
2019-02-26T21:36:39.850Z,99055.13
2019-02-26T21:39:14.090Z,99055.44
2019-02-26T21:41:49.201Z,99053.05
2019-02-26T21:44:23.584Z,99035.41
2019-02-26T21:46:57.657Z,99015.48
2019-02-26T21:49:31.952Z,99009.42
2019-02-26T21:52:08.743Z,99013.06
2019-02-26T21:54:42.886Z,99006.81
2019-02-26T21:57:16.945Z,99004.09
2019-02-26T21:59:51.173Z,98999.70
2019-02-26T22:02:25.363Z,98992.10
2019-02-26T22:04:59.382Z,99001.00
2019-02-26T22:07:33.446Z,99008.06
2019-02-26T22:10:07.903Z,99008.28
2019-02-26T22:12:42.328Z,99001.00
2019-02-26T22:15:17.047Z,98986.89
2019-02-26T22:17:51.444Z,98976.76
2019-02-26T22:20:35.907Z,98966.66
2019-02-26T22:23:01.736Z,98935.55
2019-02-26T22:25:35.737Z,98923.25
2019-02-26T22:28:10.494Z,98948.48
2019-02-26T22:30:44.842Z,98968.11
2019-02-26T22:33:19.013Z,98971.55
2019-02-26T22:35:53.291Z,98965.74
2019-02-26T22:38:27.419Z,98948.92
2019-02-26T22:41:02.324Z,98935.04
2019-02-26T22:43:36.627Z,98929.77
2019-02-26T22:46:10.711Z,98919.42
2019-02-26T22:48:46.852Z,98919.95
2019-02-26T22:51:20.926Z,98925.16
2019-02-26T22:53:55.239Z,98924.13
2019-02-26T22:56:29.156Z,98911.91
2019-02-26T22:59:07.765Z,98907.11
2019-02-26T23:01:48.062Z,98907.42
2019-02-26T23:04:22.418Z,98909.70
2019-02-26T23:06:56.396Z,98926.20
2019-02-26T23:09:32.098Z,98929.45
2019-02-26T23:12:06.711Z,98917.45
2019-02-26T23:14:41.471Z,98918.28
2019-02-26T23:17:16.419Z,98917.45
2019-02-26T23:19:50.822Z,98914.43
2019-02-26T23:22:25.038Z,98911.94
2019-02-26T23:25:00.985Z,98908.55
2019-02-26T23:27:37.513Z,98903.48
2019-02-26T23:30:13.148Z,98897.42
2019-02-26T23:32:47.273Z,98890.86
2019-02-26T23:35:21.450Z,98890.55
2019-02-26T23:37:57.152Z,98897.11
2019-02-26T23:40:31.604Z,98899.81
2019-02-26T23:43:05.910Z,98903.57
2019-02-26T23:45:40.219Z,98898.90
2019-02-26T23:48:14.452Z,98913.81
2019-02-26T23:50:48.826Z,98919.56
2019-02-26T23:53:22.937Z,98929.56
2019-02-26T23:55:57.382Z,98937.70
2019-02-26T23:58:31.704Z,98939.05
